Time;durP1;ratioP1;P1;durP2;ratioP2;P2;SDS_P1;SDS_P2;PMS_P1;PMS_P2;Temp;Humidity;BMP_temperature;BMP_pressure;BME280_temperature;BME280_humidity;BME280_pressure;Samples;Min_cycle;Max_cycle;Signal;HPM_P1;HPM_P2
2023/11/25 00:00:06;;;;;;;5.60;0.50;;;3.20;99.90;;;;;;5012401;28;20034;-85
2023/11/25 00:02:33;;;;;;;8.95;0.50;;;3.20;99.90;;;;;;5015433;28;20034;-85
2023/11/25 00:04:59;;;;;;;3.90;0.32;;;3.20;99.90;;;;;;5015489;28;20025;-85
2023/11/25 00:07:25;;;;;;;10.60;1.13;;;3.10;99.90;;;;;;5006039;28;20036;-86
2023/11/25 00:09:51;;;;;;;10.73;0.50;;;3.10;99.90;;;;;;5015590;28;20109;-86
2023/11/25 00:12:16;;;;;;;8.90;1.38;;;3.10;99.90;;;;;;5014374;28;20557;-86
2023/11/25 00:14:42;;;;;;;17.17;1.23;;;3.10;99.90;;;;;;5032844;28;20029;-85
2023/11/25 00:17:08;;;;;;;11.75;0.70;;;3.10;99.90;;;;;;5012043;28;20330;-86
2023/11/25 00:19:34;;;;;;;9.60;0.77;;;3.10;99.90;;;;;;5006822;28;20056;-86
2023/11/25 00:22:00;;;;;;;10.13;1.05;;;3.20;99.90;;;;;;5031504;28;20024;-86
2023/11/25 00:24:26;;;;;;;9.23;1.00;;;3.30;99.90;;;;;;5015231;28;20029;-85
2023/11/25 00:26:52;;;;;;;7.57;0.50;;;3.30;99.90;;;;;;5015230;28;20037;-86
2023/11/25 00:29:18;;;;;;;11.80;0.85;;;3.30;99.90;;;;;;4998001;28;20029;-86
2023/11/25 00:31:47;;;;;;;8.07;0.70;;;3.30;99.90;;;;;;5017834;28;20386;-86
2023/11/25 00:34:13;;;;;;;14.65;1.13;;;3.20;99.90;;;;;;5011107;28;20029;-85
2023/11/25 00:36:38;;;;;;;12.80;1.10;;;3.20;99.90;;;;;;5016307;28;20034;-86
2023/11/25 00:39:06;;;;;;;13.88;1.60;;;3.20;99.90;;;;;;5024705;28;20058;-86
2023/11/25 00:41:33;;;;;;;9.40;0.50;;;3.10;99.90;;;;;;4999890;28;20018;-86
2023/11/25 00:43:59;;;;;;;12.52;0.60;;;3.10;99.90;;;;;;5007044;28;20110;-86
2023/11/25 00:46:25;;;;;;;15.43;0.70;;;3.00;99.90;;;;;;5030740;28;20065;-86
2023/11/25 00:48:52;;;;;;;8.32;0.50;;;3.00;99.90;;;;;;5032257;28;20075;-86
2023/11/25 00:51:18;;;;;;;8.40;0.65;;;2.90;99.90;;;;;;5020667;28;20029;-86
2023/11/25 00:53:43;;;;;;;19.50;1.02;;;2.90;99.90;;;;;;5021546;28;20043;-86
2023/11/25 00:56:09;;;;;;;14.20;0.80;;;2.90;99.90;;;;;;5019376;28;20030;-86
2023/11/25 00:58:34;;;;;;;8.88;0.82;;;2.90;99.90;;;;;;5004673;28;20034;-86
2023/11/25 01:01:00;;;;;;;10.45;0.80;;;2.80;99.90;;;;;;5023958;28;20473;-86
2023/11/25 01:03:27;;;;;;;11.32;0.60;;;2.70;99.90;;;;;;5026366;28;20508;-86
2023/11/25 01:05:53;;;;;;;14.32;0.90;;;2.70;99.90;;;;;;5005449;28;20025;-86
2023/11/25 01:08:20;;;;;;;16.48;0.85;;;2.70;99.90;;;;;;5014548;28;20466;-86
2023/11/25 01:10:45;;;;;;;18.92;1.00;;;2.70;99.90;;;;;;5028319;28;20025;-86
2023/11/25 01:13:11;;;;;;;10.00;1.38;;;2.60;99.90;;;;;;5014564;28;20029;-86
2023/11/25 01:15:37;;;;;;;19.95;1.35;;;2.70;99.90;;;;;;5014479;28;20503;-86
2023/11/25 01:18:02;;;;;;;19.63;1.50;;;2.70;99.90;;;;;;5014668;28;20021;-86
2023/11/25 01:20:28;;;;;;;13.75;1.17;;;2.70;99.90;;;;;;5010614;28;20038;-86
2023/11/25 01:22:54;;;;;;;15.32;0.98;;;2.80;99.90;;;;;;5024827;28;20014;-86
2023/11/25 01:25:21;;;;;;;11.80;0.50;;;2.80;99.90;;;;;;5012849;28;20040;-86
2023/11/25 01:27:47;;;;;;;18.55;1.30;;;2.90;99.90;;;;;;5014295;28;20079;-86
2023/11/25 01:30:13;;;;;;;14.18;0.82;;;3.00;99.90;;;;;;5014272;28;20389;-86
2023/11/25 01:32:39;;;;;;;11.88;0.95;;;3.10;99.90;;;;;;5003109;28;20167;-86
2023/11/25 01:35:05;;;;;;;12.75;0.85;;;3.30;99.90;;;;;;5020370;28;20448;-86
2023/11/25 01:37:31;;;;;;;14.32;1.17;;;3.40;99.90;;;;;;5015195;28;20832;-86
2023/11/25 01:39:56;;;;;;;17.08;2.00;;;3.40;99.90;;;;;;5016657;28;20037;-86
2023/11/25 01:42:22;;;;;;;11.45;0.80;;;3.50;99.90;;;;;;5011206;28;20104;-86
2023/11/25 01:44:47;;;;;;;10.13;0.82;;;3.50;99.90;;;;;;5017838;28;20025;-86
2023/11/25 01:47:13;;;;;;;10.02;0.60;;;3.60;99.90;;;;;;5034981;28;20500;-86
2023/11/25 01:49:41;;;;;;;15.60;1.45;;;3.70;99.90;;;;;;5017734;28;20017;-85
2023/11/25 01:52:09;;;;;;;11.85;0.80;;;3.80;99.90;;;;;;5008981;28;20033;-86
2023/11/25 01:54:35;;;;;;;9.82;0.82;;;3.80;99.90;;;;;;5035229;28;20481;-86
2023/11/25 01:57:02;;;;;;;9.63;0.70;;;3.90;99.90;;;;;;5005839;28;20034;-86
2023/11/25 01:59:29;;;;;;;15.07;1.90;;;4.00;99.90;;;;;;5017283;28;20038;-85
2023/11/25 02:01:56;;;;;;;11.32;0.93;;;4.00;99.90;;;;;;5030042;28;20049;-86
2023/11/25 02:04:22;;;;;;;13.23;1.35;;;4.10;99.90;;;;;;5019601;28;20503;-86
2023/11/25 02:06:49;;;;;;;16.85;1.15;;;4.20;99.90;;;;;;5017287;28;20056;-86
2023/11/25 02:09:16;;;;;;;12.38;0.77;;;4.30;99.90;;;;;;5016655;28;20098;-86
2023/11/25 02:11:58;;;;;;;16.20;1.02;;;4.40;99.90;;;;;;5009866;28;20481;-86
2023/11/25 02:14:27;;;;;;;17.73;0.80;;;4.60;99.90;;;;;;5018980;28;20025;-87
2023/11/25 02:16:55;;;;;;;17.65;0.90;;;4.60;99.90;;;;;;5015510;28;20116;-85
2023/11/25 02:19:21;;;;;;;16.05;0.95;;;4.50;99.90;;;;;;5015391;28;20038;-85
2023/11/25 02:21:47;;;;;;;9.13;0.45;;;4.40;99.90;;;;;;5007171;28;20128;-85
2023/11/25 02:24:13;;;;;;;10.50;0.70;;;4.30;99.90;;;;;;5013189;28;20061;-85
2023/11/25 02:26:39;;;;;;;11.45;0.70;;;4.30;99.90;;;;;;5034889;28;20033;-85
2023/11/25 02:29:05;;;;;;;19.33;1.13;;;4.30;99.90;;;;;;5028996;28;20049;-85
2023/11/25 02:31:32;;;;;;;16.27;0.60;;;4.20;99.90;;;;;;5021192;28;20443;-84
2023/11/25 02:33:58;;;;;;;18.17;0.75;;;4.10;99.90;;;;;;5031880;28;20041;-85
2023/11/25 02:36:23;;;;;;;11.05;0.55;;;4.10;99.90;;;;;;5012820;28;20029;-85
2023/11/25 02:38:49;;;;;;;11.20;0.90;;;4.00;99.90;;;;;;5013889;28;20497;-85
2023/11/25 02:41:15;;;;;;;13.52;1.65;;;3.90;99.90;;;;;;5015609;28;20464;-85
2023/11/25 02:43:41;;;;;;;15.65;1.95;;;3.90;99.90;;;;;;5029392;28;20061;-85
2023/11/25 02:46:07;;;;;;;11.55;1.30;;;3.70;99.90;;;;;;5015513;28;20123;-85
2023/11/25 02:48:35;;;;;;;11.20;0.65;;;3.70;99.90;;;;;;5015214;28;20026;-85
2023/11/25 02:51:01;;;;;;;10.50;0.80;;;3.60;99.90;;;;;;5034394;28;20029;-86
2023/11/25 02:53:26;;;;;;;10.40;0.93;;;3.50;99.90;;;;;;5032089;28;20463;-85
2023/11/25 02:55:52;;;;;;;14.00;0.60;;;3.40;99.90;;;;;;5018789;28;20037;-85
2023/11/25 02:58:17;;;;;;;15.27;1.58;;;3.30;99.90;;;;;;5014398;28;20026;-85
2023/11/25 03:00:43;;;;;;;11.23;0.95;;;3.30;99.90;;;;;;5028484;28;20048;-86
2023/11/25 03:03:13;;;;;;;12.95;0.77;;;3.20;99.90;;;;;;5021636;28;20064;-86
2023/11/25 03:05:45;;;;;;;12.30;0.75;;;3.20;99.90;;;;;;5012073;28;20477;-86
2023/11/25 03:08:12;;;;;;;;;;;3.20;99.90;;;;;;5001217;28;20034;-86
2023/11/25 03:10:42;;;;;;;12.13;1.75;;;3.10;99.90;;;;;;5027166;28;19912;-85
2023/11/25 03:13:10;;;;;;;19.55;0.90;;;3.00;99.90;;;;;;5033680;28;20124;-86
2023/11/25 03:15:37;;;;;;;13.55;0.80;;;3.00;99.90;;;;;;5008135;28;20021;-86
2023/11/25 03:18:05;;;;;;;12.60;0.88;;;3.00;99.90;;;;;;5010450;28;20091;-86
2023/11/25 03:20:34;;;;;;;15.35;0.77;;;2.90;99.90;;;;;;5026470;28;20037;-86
2023/11/25 03:23:01;;;;;;;14.82;1.30;;;2.90;99.90;;;;;;5031509;28;20026;-86
2023/11/25 03:25:29;;;;;;;16.17;2.08;;;2.90;99.90;;;;;;5020399;28;20034;-86
2023/11/25 03:27:56;;;;;;;12.52;0.80;;;2.90;99.90;;;;;;5032977;28;20028;-86
2023/11/25 03:30:22;;;;;;;14.13;0.80;;;2.90;99.90;;;;;;5015880;28;20040;-86
2023/11/25 03:32:48;;;;;;;13.25;0.73;;;2.90;99.90;;;;;;5011472;28;20026;-86
2023/11/25 03:35:15;;;;;;;19.08;1.08;;;2.90;99.90;;;;;;5002608;28;20036;-86
2023/11/25 03:37:40;;;;;;;18.10;1.08;;;2.90;99.90;;;;;;5015884;28;20042;-87
2023/11/25 03:40:13;;;;;;;12.70;0.80;;;2.80;99.90;;;;;;5004262;28;20410;-86
2023/11/25 03:42:39;;;;;;;16.70;1.30;;;2.80;99.90;;;;;;4996045;28;20030;-86
2023/11/25 03:45:07;;;;;;;16.88;1.30;;;2.80;99.90;;;;;;5006331;28;20032;-86
2023/11/25 03:47:33;;;;;;;12.50;1.08;;;2.70;99.90;;;;;;5023748;28;20119;-86
2023/11/25 03:49:59;;;;;;;14.07;0.90;;;2.70;99.90;;;;;;5016207;28;20053;-87
2023/11/25 03:52:25;;;;;;;18.02;1.23;;;2.60;99.90;;;;;;5016344;28;20390;-87
2023/11/25 03:54:51;;;;;;;8.95;0.90;;;2.60;99.90;;;;;;5014459;28;20113;-86
2023/11/25 03:57:17;;;;;;;13.05;0.70;;;2.60;99.90;;;;;;5015764;28;20026;-86
2023/11/25 03:59:42;;;;;;;19.10;1.48;;;2.50;99.90;;;;;;5031598;28;20151;-86
2023/11/25 04:02:08;;;;;;;14.85;0.70;;;2.50;99.90;;;;;;5012943;28;20022;-86
2023/11/25 04:04:34;;;;;;;13.18;1.10;;;2.50;99.90;;;;;;5030032;28;20048;-86
2023/11/25 04:07:00;;;;;;;11.75;0.93;;;2.50;99.90;;;;;;5015111;28;20018;-86
2023/11/25 04:09:26;;;;;;;21.48;1.27;;;2.50;99.90;;;;;;5017756;28;20026;-86
2023/11/25 04:11:52;;;;;;;10.82;1.00;;;2.50;99.90;;;;;;5015581;28;20032;-87
2023/11/25 04:14:18;;;;;;;13.70;0.70;;;2.50;99.90;;;;;;5017335;28;20086;-87
2023/11/25 04:16:44;;;;;;;12.93;1.15;;;2.50;99.90;;;;;;5015240;28;20469;-86
2023/11/25 04:19:10;;;;;;;15.50;1.58;;;2.50;99.90;;;;;;5027414;28;20041;-86
2023/11/25 04:21:39;;;;;;;17.67;1.48;;;2.50;99.90;;;;;;5037416;28;20025;-86
2023/11/25 04:24:10;;;;;;;17.65;1.13;;;2.50;99.90;;;;;;5016711;28;20029;-87
2023/11/25 04:26:36;;;;;;;14.35;1.63;;;2.60;99.90;;;;;;5018858;28;20021;-87
2023/11/25 04:29:04;;;;;;;21.65;1.20;;;2.60;99.90;;;;;;5036372;28;20028;-87
2023/11/25 04:31:31;;;;;;;19.67;1.00;;;2.70;99.90;;;;;;5013813;28;20039;-86
2023/11/25 04:33:57;;;;;;;20.42;1.35;;;2.70;99.90;;;;;;5023512;28;20236;-87
2023/11/25 04:36:24;;;;;;;19.70;1.00;;;2.70;99.90;;;;;;5018840;28;20025;-86
2023/11/25 04:38:50;;;;;;;13.50;1.10;;;2.80;99.90;;;;;;5013734;28;20045;-86
2023/11/25 04:41:16;;;;;;;17.42;1.08;;;2.80;99.90;;;;;;5011595;28;20486;-86
2023/11/25 04:43:41;;;;;;;15.20;1.23;;;2.80;99.90;;;;;;5014670;28;20029;-86
2023/11/25 04:46:10;;;;;;;20.08;1.60;;;2.90;99.90;;;;;;5026653;28;20038;-86
2023/11/25 04:48:36;;;;;;;22.35;1.00;;;2.90;99.90;;;;;;4999371;28;20028;-86
2023/11/25 04:51:02;;;;;;;13.52;1.13;;;3.00;99.90;;;;;;5010292;28;20026;-86
2023/11/25 04:53:27;;;;;;;18.17;2.00;;;3.00;99.90;;;;;;5009011;28;20025;-86
2023/11/25 04:55:53;;;;;;;21.23;1.77;;;3.10;99.90;;;;;;5009592;28;20424;-86
2023/11/25 04:58:18;;;;;;;16.17;1.52;;;3.20;99.90;;;;;;5032052;28;20071;-85
2023/11/25 05:00:46;;;;;;;15.23;1.33;;;3.20;99.90;;;;;;5020311;28;20041;-85
2023/11/25 05:03:12;;;;;;;20.00;1.65;;;3.30;99.90;;;;;;5011459;28;20021;-84
2023/11/25 05:05:37;;;;;;;20.80;1.55;;;3.50;99.90;;;;;;5004651;28;20037;-86
2023/11/25 05:08:04;;;;;;;20.75;1.95;;;3.60;99.90;;;;;;5017075;28;20067;-85
2023/11/25 05:10:30;;;;;;;13.55;0.80;;;3.70;99.90;;;;;;5018317;28;20026;-85
2023/11/25 05:12:56;;;;;;;11.45;1.48;;;3.80;99.90;;;;;;5018539;28;20400;-85
2023/11/25 05:15:22;;;;;;;14.27;0.90;;;3.70;99.90;;;;;;5017571;28;20159;-85
2023/11/25 05:17:48;;;;;;;5.45;0.60;;;3.80;99.90;;;;;;5018301;28;20040;-85
2023/11/25 05:20:15;;;;;;;11.27;1.10;;;3.80;99.90;;;;;;5011484;28;20440;-85
2023/11/25 05:22:42;;;;;;;12.18;0.70;;;3.80;99.90;;;;;;5003370;28;20025;-85
2023/11/25 05:25:10;;;;;;;11.75;0.82;;;3.80;99.90;;;;;;5013905;28;20396;-85
2023/11/25 05:27:36;;;;;;;11.68;0.50;;;3.90;99.90;;;;;;5022423;28;20026;-85
2023/11/25 05:30:03;;;;;;;9.90;0.43;;;3.90;99.90;;;;;;5017337;28;20359;-85
2023/11/25 05:32:28;;;;;;;10.02;0.70;;;4.00;99.90;;;;;;5029816;28;20025;-85
2023/11/25 05:34:54;;;;;;;5.75;0.77;;;4.00;99.90;;;;;;5008616;28;20072;-85
2023/11/25 05:37:19;;;;;;;8.57;0.88;;;4.10;99.90;;;;;;5019080;28;20116;-85
2023/11/25 05:39:50;;;;;;;9.98;0.40;;;4.10;99.90;;;;;;5017266;28;20060;-85
2023/11/25 05:42:23;;;;;;;11.02;0.82;;;4.10;99.90;;;;;;5009059;28;20025;-85
2023/11/25 05:44:48;;;;;;;9.05;1.92;;;4.00;99.90;;;;;;5017104;28;20029;-85
2023/11/25 05:47:14;;;;;;;17.63;0.82;;;4.00;99.90;;;;;;5008703;28;20511;-85
2023/11/25 05:49:41;;;;;;;7.82;0.40;;;4.00;99.90;;;;;;5014357;28;20044;-85
2023/11/25 05:52:06;;;;;;;10.57;0.50;;;4.10;99.90;;;;;;5021457;28;20041;-85
2023/11/25 05:54:32;;;;;;;9.48;0.35;;;4.10;99.90;;;;;;5000031;28;20022;-85
2023/11/25 05:56:58;;;;;;;9.18;0.45;;;4.10;99.90;;;;;;5035472;28;20426;-85
2023/11/25 05:59:23;;;;;;;5.43;0.40;;;4.00;99.90;;;;;;5030674;28;20046;-86
2023/11/25 06:01:49;;;;;;;4.93;0.52;;;4.00;99.90;;;;;;5011435;28;20132;-86
2023/11/25 06:04:14;;;;;;;7.65;0.30;;;4.00;99.90;;;;;;5024904;28;20033;-86
2023/11/25 06:06:40;;;;;;;3.70;0.40;;;3.90;99.90;;;;;;5022696;28;20083;-86
2023/11/25 06:09:11;;;;;;;7.20;0.77;;;3.90;99.90;;;;;;5021322;28;20024;-87
2023/11/25 06:11:37;;;;;;;7.03;0.40;;;3.90;99.90;;;;;;5012712;28;20065;-87
2023/11/25 06:14:03;;;;;;;2.72;0.22;;;3.90;99.90;;;;;;5008073;28;20026;-86
2023/11/25 06:16:29;;;;;;;7.15;0.22;;;3.90;99.90;;;;;;5021555;28;20030;-87
2023/11/25 06:18:55;;;;;;;3.78;0.20;;;3.80;99.90;;;;;;5021826;28;20068;-87
2023/11/25 06:21:20;;;;;;;5.10;0.22;;;3.80;99.90;;;;;;5012948;28;20037;-86
2023/11/25 06:23:48;;;;;;;5.82;0.20;;;3.80;99.90;;;;;;5015866;28;20088;-87
2023/11/25 06:26:14;;;;;;;4.28;0.25;;;3.80;99.90;;;;;;5026634;28;20045;-87
2023/11/25 06:28:47;;;;;;;8.52;1.00;;;3.70;99.90;;;;;;5009983;28;20088;-86
2023/11/25 06:31:13;;;;;;;5.68;0.20;;;3.60;99.90;;;;;;5014028;28;20083;-86
2023/11/25 06:33:40;;;;;;;7.07;0.40;;;3.60;99.90;;;;;;5010907;28;20030;-87
2023/11/25 06:36:07;;;;;;;6.60;0.28;;;3.60;99.90;;;;;;5017203;28;20026;-87
2023/11/25 06:38:33;;;;;;;3.35;0.28;;;3.70;99.90;;;;;;5033821;28;20064;-86
2023/11/25 06:41:00;;;;;;;6.47;0.82;;;3.70;99.90;;;;;;5020103;28;20482;-87
2023/11/25 06:43:27;;;;;;;7.30;0.50;;;3.80;99.90;;;;;;5015026;28;20025;-86
2023/11/25 06:45:53;;;;;;;4.05;0.25;;;3.90;99.90;;;;;;5034693;28;20033;-86
2023/11/25 06:48:19;;;;;;;4.18;0.20;;;3.90;99.90;;;;;;5010728;28;20022;-86
2023/11/25 06:50:45;;;;;;;6.10;0.63;;;4.00;99.90;;;;;;5000395;28;20378;-86
2023/11/25 06:53:11;;;;;;;8.65;0.30;;;4.10;99.90;;;;;;5000413;28;20026;-86
2023/11/25 06:55:41;;;;;;;4.05;0.20;;;4.20;99.90;;;;;;5034023;28;20032;-85
2023/11/25 06:58:11;;;;;;;2.35;0.22;;;4.10;99.90;;;;;;5029818;28;20084;-86
2023/11/25 07:00:40;;;;;;;4.60;0.30;;;4.10;99.90;;;;;;5013915;28;20049;-85
2023/11/25 07:03:07;;;;;;;5.25;0.30;;;4.20;99.90;;;;;;5011488;28;20026;-86
2023/11/25 07:05:33;;;;;;;4.15;0.47;;;4.30;99.90;;;;;;5006875;28;20080;-85
2023/11/25 07:07:58;;;;;;;7.40;0.40;;;4.30;99.90;;;;;;5005983;28;20061;-86
2023/11/25 07:10:25;;;;;;;6.80;0.52;;;4.30;99.90;;;;;;5020761;28;20032;-86
2023/11/25 07:12:50;;;;;;;8.80;0.70;;;4.30;99.90;;;;;;5023877;28;20031;-86
2023/11/25 07:15:16;;;;;;;10.35;1.50;;;4.20;99.90;;;;;;5015571;28;20676;-86
2023/11/25 07:17:42;;;;;;;9.30;0.47;;;4.30;99.90;;;;;;5015962;28;20477;-86
2023/11/25 07:20:11;;;;;;;7.78;0.55;;;4.20;99.90;;;;;;5016530;28;20067;-86
2023/11/25 07:22:38;;;;;;;9.80;0.40;;;4.20;99.90;;;;;;5011636;28;20151;-86
2023/11/25 07:25:05;;;;;;;5.35;0.30;;;4.10;99.90;;;;;;5011824;28;20033;-84
2023/11/25 07:27:31;;;;;;;3.72;0.30;;;4.10;99.90;;;;;;5009097;28;20113;-86
2023/11/25 07:30:00;;;;;;;9.05;0.57;;;4.10;99.90;;;;;;5011918;28;20126;-86
2023/11/25 07:32:27;;;;;;;7.75;0.50;;;4.10;99.90;;;;;;5002548;28;20061;-85
2023/11/25 07:34:52;;;;;;;5.57;0.40;;;4.10;99.90;;;;;;5015188;28;20030;-84
2023/11/25 07:37:18;;;;;;;10.52;0.38;;;4.20;99.90;;;;;;5013851;28;20037;-84
2023/11/25 07:39:44;;;;;;;7.95;0.30;;;4.20;99.90;;;;;;5015534;28;20383;-84
2023/11/25 07:42:10;;;;;;;11.38;0.47;;;4.20;99.90;;;;;;5010371;28;20087;-83
2023/11/25 07:44:36;;;;;;;5.10;0.30;;;4.20;99.90;;;;;;5027744;28;20021;-84
2023/11/25 07:47:02;;;;;;;4.82;0.38;;;4.30;99.90;;;;;;5011426;28;20125;-84
2023/11/25 07:49:31;;;;;;;11.60;0.30;;;4.30;99.90;;;;;;5015009;28;20151;-85
2023/11/25 07:51:57;;;;;;;3.40;0.30;;;4.30;99.90;;;;;;5007905;28;20034;-84
2023/11/25 07:54:23;;;;;;;10.98;0.40;;;4.30;99.90;;;;;;5009290;28;20025;-84
2023/11/25 07:56:49;;;;;;;4.82;0.20;;;4.30;99.90;;;;;;5024710;28;20160;-85
2023/11/25 07:59:15;;;;;;;6.20;0.40;;;4.30;99.90;;;;;;5010557;28;20072;-84
2023/11/25 08:01:40;;;;;;;7.13;0.30;;;4.20;99.90;;;;;;5019839;28;20025;-85
2023/11/25 08:04:06;;;;;;;8.13;0.47;;;4.20;99.90;;;;;;5009363;28;20034;-84
2023/11/25 08:06:32;;;;;;;6.07;0.85;;;4.10;99.90;;;;;;5008130;28;20025;-84
2023/11/25 08:08:57;;;;;;;8.80;0.60;;;4.10;99.90;;;;;;5006893;28;20029;-85
2023/11/25 08:11:24;;;;;;;6.55;0.60;;;4.00;99.90;;;;;;5007848;28;20053;-85
2023/11/25 08:13:50;;;;;;;7.15;0.30;;;4.00;99.90;;;;;;5008091;28;20025;-85
2023/11/25 08:16:16;;;;;;;6.57;0.40;;;4.10;99.90;;;;;;5010555;28;20029;-84
2023/11/25 08:18:41;;;;;;;7.55;1.08;;;4.10;99.90;;;;;;5025546;28;20029;-84
2023/11/25 08:21:07;;;;;;;15.20;1.33;;;4.10;99.90;;;;;;5012618;28;20087;-84
2023/11/25 08:23:33;;;;;;;10.80;0.73;;;4.20;99.90;;;;;;5010171;28;20026;-85
2023/11/25 08:25:58;;;;;;;6.93;0.40;;;4.30;99.90;;;;;;5016912;28;20025;-84
2023/11/25 08:28:24;;;;;;;5.80;0.45;;;4.30;99.90;;;;;;5013412;28;20048;-85
2023/11/25 08:30:50;;;;;;;12.20;2.00;;;4.50;99.90;;;;;;5031544;28;20021;-85
2023/11/25 08:33:17;;;;;;;10.65;0.50;;;4.60;99.90;;;;;;5012524;28;20395;-85
2023/11/25 08:35:43;;;;;;;4.30;0.52;;;4.80;99.90;;;;;;5007810;28;20017;-85
2023/11/25 08:38:09;;;;;;;9.43;0.45;;;4.90;99.90;;;;;;5010045;28;20053;-84
2023/11/25 08:40:35;;;;;;;12.35;0.55;;;5.00;99.90;;;;;;5028689;28;20037;-84
2023/11/25 08:43:08;;;;;;;4.80;0.40;;;5.00;99.90;;;;;;5013534;28;20049;-85
2023/11/25 08:45:37;;;;;;;3.05;0.30;;;5.10;99.90;;;;;;5011452;28;20094;-85
2023/11/25 08:48:03;;;;;;;6.78;0.40;;;5.10;99.90;;;;;;5009963;28;20414;-85
2023/11/25 08:50:29;;;;;;;6.43;0.30;;;5.20;99.90;;;;;;5001161;28;20025;-85
2023/11/25 08:52:54;;;;;;;2.08;0.20;;;5.10;99.90;;;;;;5019406;28;20025;-85
2023/11/25 08:55:22;;;;;;;5.80;0.22;;;5.10;99.90;;;;;;5006381;28;20408;-84
2023/11/25 08:57:50;;;;;;;2.10;0.10;;;5.00;99.90;;;;;;5008631;28;20481;-83
2023/11/25 09:00:19;;;;;;;2.70;0.10;;;5.00;99.90;;;;;;5004290;28;20184;-84
2023/11/25 09:02:50;;;;;;;3.45;0.15;;;5.00;99.90;;;;;;5025223;28;20022;-85
2023/11/25 09:05:21;;;;;;;2.05;0.10;;;5.10;99.90;;;;;;5005457;28;20125;-84
2023/11/25 09:07:50;;;;;;;2.33;0.10;;;5.10;99.90;;;;;;5007918;28;20481;-84
2023/11/25 09:10:16;;;;;;;2.03;0.10;;;5.20;99.90;;;;;;5023862;28;20116;-84
2023/11/25 09:12:42;;;;;;;9.13;0.40;;;5.30;99.90;;;;;;5015933;28;20055;-85
2023/11/25 09:15:08;;;;;;;3.15;0.25;;;5.50;99.90;;;;;;5021926;28;20017;-85
2023/11/25 09:17:38;;;;;;;8.20;0.40;;;5.60;99.90;;;;;;5018002;28;20036;-84
2023/11/25 09:20:11;;;;;;;10.48;0.47;;;5.60;99.90;;;;;;5031539;28;20067;-85
2023/11/25 09:22:41;;;;;;;8.95;0.40;;;5.70;99.90;;;;;;5012368;28;20138;-85
2023/11/25 09:25:10;;;;;;;2.95;0.20;;;5.70;99.90;;;;;;5014708;28;20049;-85
2023/11/25 09:27:36;;;;;;;3.08;0.40;;;5.70;99.90;;;;;;5016829;28;20033;-85
2023/11/25 09:30:02;;;;;;;6.30;0.40;;;5.60;99.90;;;;;;5013001;28;20103;-85
2023/11/25 09:32:28;;;;;;;9.82;0.47;;;5.60;99.90;;;;;;5009278;28;20030;-85
2023/11/25 09:34:55;;;;;;;14.05;0.60;;;5.60;99.90;;;;;;5014170;28;20025;-85
2023/11/25 09:37:21;;;;;;;9.98;0.82;;;5.70;99.90;;;;;;5003325;28;20029;-85
2023/11/25 09:39:47;;;;;;;7.38;0.55;;;5.70;99.90;;;;;;5014668;28;20128;-85
2023/11/25 09:42:12;;;;;;;9.10;0.65;;;5.70;99.90;;;;;;5009876;28;20116;-85
2023/11/25 09:44:40;;;;;;;5.90;0.57;;;5.70;99.90;;;;;;5020454;28;20029;-84
2023/11/25 09:47:05;;;;;;;7.57;0.85;;;5.90;99.90;;;;;;5018210;28;20071;-85
2023/11/25 09:49:31;;;;;;;10.13;0.68;;;5.90;99.90;;;;;;5005916;28;20025;-85
2023/11/25 09:52:04;;;;;;;8.15;0.50;;;6.00;99.90;;;;;;5002630;28;20124;-85
2023/11/25 09:54:30;;;;;;;8.60;0.95;;;6.10;99.90;;;;;;5002944;28;20021;-85
2023/11/25 09:56:56;;;;;;;10.90;1.10;;;6.10;99.90;;;;;;5013267;28;20033;-85
2023/11/25 09:59:23;;;;;;;8.35;0.98;;;6.10;99.90;;;;;;5026784;28;20033;-85
2023/11/25 10:01:50;;;;;;;5.70;0.47;;;6.00;99.90;;;;;;5019674;28;20026;-85
2023/11/25 10:04:16;;;;;;;8.02;0.40;;;6.00;99.90;;;;;;5031448;28;20032;-84
2023/11/25 10:06:42;;;;;;;5.53;0.38;;;6.00;99.90;;;;;;5001717;28;20501;-85
2023/11/25 10:09:11;;;;;;;7.82;0.40;;;6.00;99.90;;;;;;5015599;28;20041;-84
2023/11/25 10:11:42;;;;;;;6.13;0.40;;;6.10;99.90;;;;;;5006092;28;20033;-84
2023/11/25 10:14:09;;;;;;;7.35;0.60;;;6.30;99.90;;;;;;5014753;28;20037;-84
2023/11/25 10:16:35;;;;;;;10.05;0.73;;;6.40;99.90;;;;;;5019890;28;20068;-83
2023/11/25 10:19:00;;;;;;;8.82;0.82;;;6.50;99.90;;;;;;5008285;28;20125;-83
2023/11/25 10:21:26;;;;;;;10.10;1.38;;;6.60;99.90;;;;;;4995480;28;20598;-84
2023/11/25 10:23:54;;;;;;;7.65;0.73;;;6.50;99.90;;;;;;5003338;28;20022;-84
2023/11/25 10:26:21;;;;;;;5.40;0.47;;;6.50;99.90;;;;;;5010098;28;20026;-83
2023/11/25 10:28:47;;;;;;;11.05;1.02;;;6.50;99.90;;;;;;5010486;28;21001;-84
2023/11/25 10:31:16;;;;;;;9.68;0.60;;;6.60;99.90;;;;;;5002834;28;20441;-83
2023/11/25 10:33:42;;;;;;;8.68;0.50;;;6.70;99.90;;;;;;5025735;28;20022;-84
2023/11/25 10:36:10;;;;;;;5.68;0.60;;;6.70;99.90;;;;;;5018044;28;20108;-84
2023/11/25 10:38:39;;;;;;;12.20;0.55;;;6.70;99.90;;;;;;5008526;28;20034;-85
2023/11/25 10:41:05;;;;;;;11.45;0.50;;;6.80;99.90;;;;;;5024106;28;20084;-85
2023/11/25 10:43:31;;;;;;;10.55;0.57;;;6.80;99.90;;;;;;5030528;28;20025;-84
2023/11/25 10:46:08;;;;;;;7.03;0.50;;;6.80;99.90;;;;;;5012563;28;20033;-85
2023/11/25 10:48:37;;;;;;;8.68;0.77;;;6.80;99.90;;;;;;5012470;28;20112;-84
2023/11/25 10:51:03;;;;;;;8.98;0.68;;;6.80;99.90;;;;;;5020407;28;20432;-85
2023/11/25 10:53:30;;;;;;;8.38;0.52;;;6.90;99.90;;;;;;5022558;28;20052;-85
2023/11/25 10:55:56;;;;;;;8.50;0.82;;;6.90;99.90;;;;;;5016025;28;20052;-85
2023/11/25 10:58:23;;;;;;;8.80;0.77;;;6.90;99.90;;;;;;5029730;28;20025;-84
2023/11/25 11:00:50;;;;;;;8.35;0.75;;;6.90;99.90;;;;;;5010208;28;20042;-85
2023/11/25 11:03:22;;;;;;;10.43;0.50;;;6.90;99.90;;;;;;5015724;28;20022;-85
2023/11/25 11:05:59;;;;;;;7.70;0.60;;;7.00;99.90;;;;;;5030261;28;20029;-85
2023/11/25 11:08:32;;;;;;;12.63;0.50;;;7.10;99.90;;;;;;5019427;28;20111;-85
2023/11/25 11:11:13;;;;;;;;;;;7.10;99.90;;;;;;5048272;28;20063;-84
2023/11/25 11:13:47;;;;;;;6.68;0.50;;;7.20;99.90;;;;;;5013244;28;19951;-85
2023/11/25 11:16:21;;;;;;;9.40;0.50;;;7.30;99.90;;;;;;5030194;28;20036;-85
2023/11/25 11:18:51;;;;;;;10.38;0.40;;;7.40;99.90;;;;;;5014647;28;20032;-85
2023/11/25 11:21:19;;;;;;;7.90;1.17;;;7.40;99.90;;;;;;5014016;28;20036;-85
2023/11/25 11:23:45;;;;;;;5.72;0.85;;;7.30;99.90;;;;;;5015495;28;20021;-85
2023/11/25 11:26:29;;;;;;;9.23;0.50;;;7.40;99.90;;;;;;5022616;28;20029;-85
2023/11/25 11:29:16;;;;;;;8.60;0.82;;;7.50;99.90;;;;;;5033622;28;20022;-85
2023/11/25 11:32:07;;;;;;;9.07;0.45;;;7.60;99.90;;;;;;5006902;28;20029;-85
2023/11/25 11:34:36;;;;;;;4.03;0.30;;;7.80;99.90;;;;;;5035959;28;20083;-85
2023/11/25 11:37:04;;;;;;;6.07;0.60;;;7.90;99.90;;;;;;5024563;28;20461;-86
2023/11/25 11:39:38;;;;;;;7.35;1.23;;;7.80;99.90;;;;;;5014245;28;20566;-85
2023/11/25 11:42:25;;;;;;;6.55;0.47;;;7.70;99.90;;;;;;5011405;28;20029;-85
2023/11/25 11:45:11;;;;;;;5.90;0.40;;;7.70;99.90;;;;;;5027023;28;20029;-85
2023/11/25 11:47:40;;;;;;;3.53;0.85;;;7.70;99.90;;;;;;5041636;28;20396;-85
2023/11/25 11:50:10;;;;;;;5.35;0.50;;;7.80;99.90;;;;;;5015722;28;20080;-85
2023/11/25 11:52:47;;;;;;;9.13;0.50;;;7.80;99.90;;;;;;5019593;28;20460;-86
2023/11/25 11:55:31;;;;;;;11.90;1.05;;;7.90;99.90;;;;;;5018201;28;20397;-85
2023/11/25 11:58:11;;;;;;;14.43;0.88;;;7.90;99.90;;;;;;5002875;28;20049;-85
2023/11/25 12:00:59;;;;;;;5.15;0.40;;;7.90;99.90;;;;;;5036931;28;20037;-84
2023/11/25 12:03:25;;;;;;;11.13;0.80;;;7.80;99.90;;;;;;5009675;28;20477;-84
2023/11/25 12:05:51;;;;;;;7.68;0.80;;;7.80;99.90;;;;;;5022177;28;20033;-85
2023/11/25 12:08:17;;;;;;;13.20;0.70;;;7.80;99.90;;;;;;5015177;28;20022;-85
2023/11/25 12:10:43;;;;;;;5.72;0.50;;;7.90;99.90;;;;;;5012424;28;20041;-85
2023/11/25 12:13:10;;;;;;;9.55;0.73;;;7.90;99.90;;;;;;5018671;28;20021;-85
2023/11/25 12:15:36;;;;;;;11.45;0.60;;;7.80;99.90;;;;;;5029339;28;20075;-86
2023/11/25 12:18:03;;;;;;;9.10;0.47;;;7.80;99.90;;;;;;5028191;28;20022;-85
2023/11/25 12:20:30;;;;;;;14.32;0.60;;;7.60;99.90;;;;;;5035343;28;20033;-85
2023/11/25 12:22:56;;;;;;;11.18;0.70;;;7.50;99.90;;;;;;5038462;28;20029;-85
2023/11/25 12:25:26;;;;;;;7.40;0.45;;;7.50;99.90;;;;;;5036332;28;20037;-86
2023/11/25 12:27:51;;;;;;;7.90;0.70;;;7.60;99.90;;;;;;5032322;28;20025;-85
2023/11/25 12:30:17;;;;;;;10.50;0.50;;;7.70;99.90;;;;;;5034984;28;20511;-86
2023/11/25 12:32:43;;;;;;;10.20;0.50;;;7.80;99.90;;;;;;5021419;28;20053;-86
2023/11/25 12:35:13;;;;;;;8.77;0.80;;;7.80;99.90;;;;;;5016856;28;20029;-85
2023/11/25 12:37:42;;;;;;;13.70;0.50;;;7.70;99.90;;;;;;5028437;28;20087;-85
2023/11/25 12:40:21;;;;;;;6.15;0.43;;;7.70;99.90;;;;;;5032362;28;20048;-85
2023/11/25 12:42:48;;;;;;;10.30;1.25;;;7.60;99.90;;;;;;5032696;28;20056;-85
2023/11/25 12:45:47;;;;;;;7.57;0.82;;;7.50;99.90;;;;;;5008221;28;20079;-85
2023/11/25 12:48:15;;;;;;;8.63;0.70;;;7.60;99.90;;;;;;4972189;28;20037;-85
2023/11/25 12:51:01;;;;;;;8.80;0.80;;;7.50;99.90;;;;;;5007850;28;20017;-85
2023/11/25 12:53:26;;;;;;;7.90;0.70;;;7.60;99.90;;;;;;4998584;28;20044;-84